Wetterdaten: Dienstag, 30.03.2010
Datum Zeit Temp. A. Feuchte A. Luftdruck Regen Wind Richtung Richtung Sonnenschein UV Solar Windben
30.03.2010 00:00 8,1 C 87 % 1001,4 hPa 0,0 mm 4,8 km/h (1 Bft) O-SO 112 0 min 0 UV-I 0 W/m 11,3 km/h (2 Bft)
30.03.2010 00:10 8,1 C 87 % 1001,4 hPa 0,0 mm 3,2 km/h (1 Bft) O-SO 112 0 min 0 UV-I 0 W/m 8,0 km/h (2 Bft)
30.03.2010 00:20 8,1 C 87 % 1001,4 hPa 0,0 mm 1,6 km/h (1 Bft) O-SO 112 0 min 0 UV-I 0 W/m 6,4 km/h (2 Bft)
30.03.2010 00:30 8,1 C 87 % 1001,2 hPa 0,0 mm 1,6 km/h (1 Bft) O-SO 112 0 min 0 UV-I 0 W/m 8,0 km/h (2 Bft)
30.03.2010 00:40 8,1 C 87 % 1001,0 hPa 0,0 mm 3,2 km/h (1 Bft) O-SO 112 0 min 0 UV-I 0 W/m 6,4 km/h (2 Bft)
30.03.2010 00:50 8,1 C 87 % 1000,8 hPa 0,0 mm 3,2 km/h (1 Bft) O-SO 112 0 min 0 UV-I 0 W/m 9,7 km/h (2 Bft)
30.03.2010 01:00 8,1 C 88 % 1000,8 hPa 0,0 mm 4,8 km/h (1 Bft) O-SO 112 0 min 0 UV-I 0 W/m 14,5 km/h (3 Bft)
30.03.2010 01:10 8,2 C 88 % 1000,5 hPa 0,0 mm 3,2 km/h (1 Bft) SO 135 0 min 0 UV-I 0 W/m 9,7 km/h (2 Bft)
30.03.2010 01:20 8,2 C 88 % 1000,3 hPa 0,0 mm 1,6 km/h (1 Bft) O-SO 112 0 min 0 UV-I 0 W/m 4,8 km/h (1 Bft)
30.03.2010 01:30 8,1 C 88 % 1000,1 hPa 0,0 mm 3,2 km/h (1 Bft) O-SO 112 0 min 0 UV-I 0 W/m 6,4 km/h (2 Bft)
30.03.2010 01:40 8,1 C 88 % 999,9 hPa 0,0 mm 3,2 km/h (1 Bft) O-SO 112 0 min 0 UV-I 0 W/m 8,0 km/h (2 Bft)
30.03.2010 01:50 8,1 C 88 % 999,7 hPa 0,0 mm 3,2 km/h (1 Bft) O-SO 112 0 min 0 UV-I 0 W/m 8,0 km/h (2 Bft)
30.03.2010 02:00 8,1 C 88 % 999,8 hPa 0,0 mm 3,2 km/h (1 Bft) O-SO 112 0 min 0 UV-I 0 W/m 8,0 km/h (2 Bft)
30.03.2010 02:10 8,2 C 89 % 999,5 hPa 0,0 mm 1,6 km/h (1 Bft) O-SO 112 0 min 0 UV-I 0 W/m 6,4 km/h (2 Bft)
30.03.2010 02:20 8,2 C 89 % 999,4 hPa 0,0 mm 3,2 km/h (1 Bft) O-SO 112 0 min 0 UV-I 0 W/m 6,4 km/h (2 Bft)
30.03.2010 02:30 8,3 C 89 % 999,1 hPa 0,0 mm 4,8 km/h (1 Bft) O-SO 112 0 min 0 UV-I 0 W/m 11,3 km/h (2 Bft)
30.03.2010 02:40 8,4 C 89 % 998,8 hPa 0,0 mm 6,4 km/h (2 Bft) O-SO 112 0 min 0 UV-I 0 W/m 16,1 km/h (3 Bft)
30.03.2010 02:50 8,5 C 89 % 998,6 hPa 0,0 mm 8,0 km/h (2 Bft) O-SO 112 0 min 0 UV-I 0 W/m 17,7 km/h (3 Bft)
30.03.2010 03:00 8,6 C 89 % 998,4 hPa 0,0 mm 6,4 km/h (2 Bft) O-SO 112 0 min 0 UV-I 0 W/m 16,1 km/h (3 Bft)
30.03.2010 03:10 8,7 C 89 % 998,2 hPa 0,0 mm 6,4 km/h (2 Bft) O 90 0 min 0 UV-I 0 W/m 17,7 km/h (3 Bft)
30.03.2010 03:20 8,8 C 89 % 998,1 hPa 0,0 mm 6,4 km/h (2 Bft) O-SO 112 0 min 0 UV-I 0 W/m 17,7 km/h (3 Bft)
30.03.2010 03:30 8,9 C 88 % 997,9 hPa 0,0 mm 6,4 km/h (2 Bft) O-SO 112 0 min 0 UV-I 0 W/m 17,7 km/h (3 Bft)
30.03.2010 03:40 9,0 C 88 % 997,7 hPa 0,0 mm 4,8 km/h (1 Bft) O-SO 112 0 min 0 UV-I 0 W/m 16,1 km/h (3 Bft)
30.03.2010 03:50 9,0 C 88 % 997,4 hPa 0,0 mm 3,2 km/h (1 Bft) O-SO 112 0 min 0 UV-I 0 W/m 9,7 km/h (2 Bft)
30.03.2010 04:00 9,1 C 87 % 997,3 hPa 0,0 mm 1,6 km/h (1 Bft) O 90 0 min 0 UV-I 0 W/m 8,0 km/h (2 Bft)
30.03.2010 04:10 9,1 C 87 % 997,1 hPa 0,0 mm 3,2 km/h (1 Bft) O-SO 112 0 min 0 UV-I 0 W/m 20,9 km/h (4 Bft)
30.03.2010 04:20 9,2 C 87 % 996,9 hPa 0,0 mm 4,8 km/h (1 Bft) SO 135 0 min 0 UV-I 0 W/m 16,1 km/h (3 Bft)
30.03.2010 04:30 9,4 C 86 % 996,9 hPa 0,0 mm 4,8 km/h (1 Bft) SO 135 0 min 0 UV-I 0 W/m 17,7 km/h (3 Bft)
30.03.2010 04:40 9,6 C 86 % 996,7 hPa 0,0 mm 4,8 km/h (1 Bft) SO 135 0 min 0 UV-I 0 W/m 17,7 km/h (3 Bft)
30.03.2010 04:50 9,7 C 85 % 996,7 hPa 0,0 mm 3,2 km/h (1 Bft) O-SO 112 0 min 0 UV-I 0 W/m 8,0 km/h (2 Bft)
30.03.2010 05:00 9,7 C 84 % 996,6 hPa 0,0 mm 4,8 km/h (1 Bft) O-SO 112 0 min 0 UV-I 0 W/m 9,7 km/h (2 Bft)
30.03.2010 05:10 9,7 C 84 % 996,4 hPa 0,0 mm 4,8 km/h (1 Bft) O-SO 112 0 min 0 UV-I 0 W/m 12,9 km/h (3 Bft)
30.03.2010 05:20 9,7 C 84 % 996,3 hPa 0,0 mm 4,8 km/h (1 Bft) O-SO 112 0 min 0 UV-I 0 W/m 16,1 km/h (3 Bft)
30.03.2010 05:30 9,7 C 84 % 996,2 hPa 0,0 mm 4,8 km/h (1 Bft) SO 135 0 min 0 UV-I 0 W/m 22,5 km/h (4 Bft)
30.03.2010 05:40 9,8 C 83 % 996,2 hPa 0,0 mm 4,8 km/h (1 Bft) S 180 0 min 0 UV-I 0 W/m 19,3 km/h (3 Bft)
30.03.2010 05:50 9,8 C 83 % 996,0 hPa 0,0 mm 3,2 km/h (1 Bft) O-SO 112 0 min 0 UV-I 0 W/m 11,3 km/h (2 Bft)
30.03.2010 06:00 9,8 C 83 % 995,8 hPa 0,0 mm 6,4 km/h (2 Bft) O-SO 112 0 min 0 UV-I 0 W/m 19,3 km/h (3 Bft)
30.03.2010 06:10 9,8 C 83 % 995,6 hPa 0,0 mm 6,4 km/h (2 Bft) O-SO 112 0 min 0 UV-I 0 W/m 11,3 km/h (2 Bft)
30.03.2010 06:20 9,8 C 82 % 995,5 hPa 0,0 mm 4,8 km/h (1 Bft) O-SO 112 0 min 0 UV-I 0 W/m 11,3 km/h (2 Bft)
30.03.2010 06:30 9,8 C 82 % 995,4 hPa 0,0 mm 3,2 km/h (1 Bft) O-SO 112 0 min 0 UV-I 0 W/m 9,7 km/h (2 Bft)
30.03.2010 06:40 9,7 C 82 % 995,3 hPa 0,0 mm 3,2 km/h (1 Bft) O-SO 112 0 min 0 UV-I 0 W/m 8,0 km/h (2 Bft)
30.03.2010 06:50 9,7 C 82 % 995,0 hPa 0,0 mm 3,2 km/h (1 Bft) O-SO 112 0 min 0 UV-I 0 W/m 9,7 km/h (2 Bft)
30.03.2010 07:00 9,6 C 83 % 995,0 hPa 0,0 mm 3,2 km/h (1 Bft) O-SO 112 0 min 0 UV-I 0 W/m 8,0 km/h (2 Bft)
30.03.2010 07:10 9,5 C 83 % 994,9 hPa 0,0 mm 3,2 km/h (1 Bft) SO 135 0 min 0 UV-I 0 W/m 19,3 km/h (3 Bft)
30.03.2010 07:20 9,6 C 82 % 994,9 hPa 0,0 mm 4,8 km/h (1 Bft) SO 135 0 min 0 UV-I 9 W/m 11,3 km/h (2 Bft)
30.03.2010 07:30 9,7 C 82 % 994,9 hPa 0,0 mm 4,8 km/h (1 Bft) O-SO 112 0 min 0 UV-I 14 W/m 14,5 km/h (3 Bft)
30.03.2010 07:40 9,8 C 82 % 994,8 hPa 0,0 mm 4,8 km/h (1 Bft) O-SO 112 0 min 0 UV-I 19 W/m 11,3 km/h (2 Bft)
30.03.2010 07:50 9,9 C 82 % 994,8 hPa 0,0 mm 4,8 km/h (1 Bft) O-SO 112 0 min 0 UV-I 23 W/m 16,1 km/h (3 Bft)
30.03.2010 08:00 9,9 C 82 % 994,8 hPa 0,0 mm 2,1 km/h (1 Bft) S 183 0 min 0 UV-I 16 W/m 8,0 km/h (2 Bft)
30.03.2010 08:10 10,0 C 82 % 994,9 hPa 0,0 mm 3,2 km/h (1 Bft) SO 135 0 min 0 UV-I 47 W/m 11,3 km/h (2 Bft)
30.03.2010 08:20 10,1 C 82 % 994,8 hPa 0,0 mm 3,2 km/h (1 Bft) O-SO 112 0 min 0 UV-I 62 W/m 12,9 km/h (3 Bft)
30.03.2010 08:30 10,2 C 82 % 994,8 hPa 0,0 mm 6,4 km/h (2 Bft) SO 135 0 min 0 UV-I 60 W/m 20,9 km/h (4 Bft)
30.03.2010 08:40 10,2 C 82 % 994,7 hPa 0,0 mm 3,2 km/h (1 Bft) SO 135 0 min 0 UV-I 62 W/m 14,5 km/h (3 Bft)
30.03.2010 08:50 10,3 C 82 % 994,6 hPa 0,0 mm 3,2 km/h (1 Bft) S-SO 157 0 min 0 UV-I 37 W/m 11,3 km/h (2 Bft)
30.03.2010 09:00 10,3 C 82 % 994,6 hPa 0,0 mm 3,2 km/h (1 Bft) S 180 0 min 0 UV-I 39 W/m 16,1 km/h (3 Bft)
30.03.2010 09:10 10,3 C 82 % 994,6 hPa 0,0 mm 3,2 km/h (1 Bft) S-SO 157 0 min 0 UV-I 40 W/m 11,3 km/h (2 Bft)
30.03.2010 09:20 10,3 C 82 % 994,6 hPa 0,0 mm 1,6 km/h (1 Bft) S-SO 157 0 min 0 UV-I 42 W/m 11,3 km/h (2 Bft)
30.03.2010 09:30 10,4 C 82 % 994,5 hPa 0,0 mm 3,2 km/h (1 Bft) S-SO 157 0 min 0 UV-I 72 W/m 16,1 km/h (3 Bft)
30.03.2010 09:40 10,5 C 82 % 994,5 hPa 0,0 mm 3,2 km/h (1 Bft) SO 135 0 min 1 UV-I 86 W/m 12,9 km/h (3 Bft)
30.03.2010 09:50 10,6 C 81 % 994,5 hPa 0,0 mm 3,2 km/h (1 Bft) S-SO 157 0 min 1 UV-I 77 W/m 11,3 km/h (2 Bft)
30.03.2010 10:00 10,7 C 81 % 994,5 hPa 0,0 mm 3,2 km/h (1 Bft) SO 135 0 min 1 UV-I 113 W/m 9,7 km/h (2 Bft)
30.03.2010 10:10 10,9 C 80 % 994,4 hPa 0,0 mm 1,6 km/h (1 Bft) O-SO 112 0 min 1 UV-I 144 W/m 9,7 km/h (2 Bft)
30.03.2010 10:20 11,1 C 80 % 994,3 hPa 0,0 mm 1,6 km/h (1 Bft) S-SW 202 0 min 1 UV-I 116 W/m 6,4 km/h (2 Bft)
30.03.2010 10:30 11,2 C 79 % 994,3 hPa 0,0 mm 1,6 km/h (1 Bft) O-SO 112 0 min 0 UV-I 39 W/m 4,8 km/h (1 Bft)
30.03.2010 10:40 11,3 C 79 % 994,4 hPa 0,0 mm 1,6 km/h (1 Bft) O 90 0 min 0 UV-I 49 W/m 4,8 km/h (1 Bft)
30.03.2010 10:50 11,4 C 79 % 994,4 hPa 0,0 mm 3,2 km/h (1 Bft) O-SO 112 0 min 1 UV-I 95 W/m 9,7 km/h (2 Bft)
30.03.2010 11:00 11,4 C 79 % 994,4 hPa 0,0 mm 1,6 km/h (1 Bft) O-SO 112 0 min 1 UV-I 114 W/m 6,4 km/h (2 Bft)
30.03.2010 11:10 11,8 C 78 % 994,3 hPa 0,0 mm 1,6 km/h (1 Bft) O-SO 112 10 min 2 UV-I 408 W/m 6,4 km/h (2 Bft)
30.03.2010 11:20 13,4 C 71 % 994,2 hPa 0,0 mm 3,2 km/h (1 Bft) O-SO 112 10 min 3 UV-I 788 W/m 11,3 km/h (2 Bft)
30.03.2010 11:30 14,9 C 68 % 994,0 hPa 0,0 mm 3,2 km/h (1 Bft) SO 135 10 min 3 UV-I 796 W/m 11,3 km/h (2 Bft)
30.03.2010 11:40 15,0 C 61 % 993,9 hPa 0,0 mm 4,8 km/h (1 Bft) W-SW 247 10 min 3 UV-I 826 W/m 14,5 km/h (3 Bft)
30.03.2010 11:50 15,0 C 60 % 993,8 hPa 0,0 mm 4,8 km/h (1 Bft) S-SW 202 10 min 3 UV-I 772 W/m 19,3 km/h (3 Bft)
30.03.2010 12:00 15,2 C 59 % 993,7 hPa 0,0 mm 4,8 km/h (1 Bft) S-SW 202 10 min 3 UV-I 802 W/m 14,5 km/h (3 Bft)
30.03.2010 12:10 15,4 C 58 % 993,6 hPa 0,0 mm 4,8 km/h (1 Bft) S 180 10 min 4 UV-I 773 W/m 11,3 km/h (2 Bft)
30.03.2010 12:20 15,3 C 59 % 993,7 hPa 0,0 mm 4,8 km/h (1 Bft) SW 225 10 min 3 UV-I 417 W/m 16,1 km/h (3 Bft)
30.03.2010 12:30 15,4 C 64 % 993,7 hPa 0,0 mm 4,8 km/h (1 Bft) O-SO 112 10 min 2 UV-I 359 W/m 19,3 km/h (3 Bft)
30.03.2010 12:40 15,4 C 64 % 993,6 hPa 0,0 mm 4,8 km/h (1 Bft) SO 135 10 min 4 UV-I 1004 W/m 11,3 km/h (2 Bft)
30.03.2010 12:50 16,4 C 63 % 993,4 hPa 0,0 mm 4,8 km/h (1 Bft) O-SO 112 10 min 4 UV-I 895 W/m 11,3 km/h (2 Bft)
30.03.2010 13:00 16,6 C 64 % 993,3 hPa 0,0 mm 6,4 km/h (2 Bft) O 90 10 min 4 UV-I 812 W/m 17,7 km/h (3 Bft)
30.03.2010 13:10 16,9 C 62 % 993,2 hPa 0,0 mm 6,4 km/h (2 Bft) O-SO 112 10 min 4 UV-I 731 W/m 16,1 km/h (3 Bft)
30.03.2010 13:20 17,1 C 59 % 993,0 hPa 0,0 mm 6,4 km/h (2 Bft) O-SO 112 10 min 4 UV-I 756 W/m 17,7 km/h (3 Bft)
30.03.2010 13:30 17,2 C 58 % 992,8 hPa 0,0 mm 6,4 km/h (2 Bft) SO 135 10 min 4 UV-I 763 W/m 19,3 km/h (3 Bft)
30.03.2010 13:40 17,3 C 58 % 992,8 hPa 0,0 mm 6,4 km/h (2 Bft) SO 135 10 min 3 UV-I 605 W/m 16,1 km/h (3 Bft)
30.03.2010 13:50 17,3 C 56 % 992,5 hPa 0,0 mm 6,4 km/h (2 Bft) O-SO 112 10 min 4 UV-I 898 W/m 20,9 km/h (4 Bft)
30.03.2010 14:00 17,9 C 56 % 992,4 hPa 0,0 mm 4,8 km/h (1 Bft) SO 135 10 min 4 UV-I 751 W/m 14,5 km/h (3 Bft)
30.03.2010 14:10 18,1 C 57 % 992,3 hPa 0,0 mm 4,8 km/h (1 Bft) O 90 10 min 3 UV-I 707 W/m 20,9 km/h (4 Bft)
30.03.2010 14:20 17,8 C 59 % 992,1 hPa 0,0 mm 6,4 km/h (2 Bft) SO 135 10 min 3 UV-I 422 W/m 20,9 km/h (4 Bft)
30.03.2010 14:30 17,4 C 59 % 992,0 hPa 0,0 mm 4,8 km/h (1 Bft) SO 135 10 min 3 UV-I 608 W/m 20,9 km/h (4 Bft)
30.03.2010 14:40 17,2 C 58 % 991,8 hPa 0,0 mm 4,8 km/h (1 Bft) O-SO 112 10 min 3 UV-I 515 W/m 22,5 km/h (4 Bft)
30.03.2010 14:50 17,8 C 54 % 991,7 hPa 0,0 mm 8,0 km/h (2 Bft) S 180 10 min 4 UV-I 891 W/m 22,5 km/h (4 Bft)
30.03.2010 15:00 18,6 C 52 % 991,5 hPa 0,0 mm 6,4 km/h (2 Bft) O-SO 112 10 min 3 UV-I 751 W/m 19,3 km/h (3 Bft)
30.03.2010 15:10 18,9 C 53 % 991,6 hPa 0,0 mm 6,4 km/h (2 Bft) S 180 10 min 3 UV-I 765 W/m 19,3 km/h (3 Bft)
30.03.2010 15:20 19,2 C 50 % 991,4 hPa 0,0 mm 8,0 km/h (2 Bft) O-SO 112 10 min 3 UV-I 722 W/m 20,9 km/h (4 Bft)
30.03.2010 15:30 19,3 C 51 % 991,3 hPa 0,0 mm 8,0 km/h (2 Bft) SO 135 10 min 3 UV-I 694 W/m 25,7 km/h (4 Bft)
30.03.2010 15:40 19,2 C 50 % 991,1 hPa 0,0 mm 8,0 km/h (2 Bft) O-SO 112 10 min 3 UV-I 636 W/m 22,5 km/h (4 Bft)
30.03.2010 15:50 19,2 C 50 % 991,1 hPa 0,0 mm 6,4 km/h (2 Bft) SO 135 10 min 2 UV-I 536 W/m 17,7 km/h (3 Bft)
30.03.2010 16:00 19,4 C 48 % 990,7 hPa 0,0 mm 8,5 km/h (2 Bft) SO 144 10 min 2 UV-I 426 W/m 16,1 km/h (3 Bft)
30.03.2010 16:10 19,3 C 50 % 990,8 hPa 0,0 mm 3,2 km/h (1 Bft) S-SO 157 10 min 2 UV-I 485 W/m 8,0 km/h (2 Bft)
30.03.2010 16:20 19,3 C 51 % 990,8 hPa 0,0 mm 4,8 km/h (1 Bft) S-SO 157 10 min 2 UV-I 561 W/m 17,7 km/h (3 Bft)
30.03.2010 16:30 19,3 C 46 % 990,8 hPa 0,0 mm 4,8 km/h (1 Bft) SO 135 10 min 2 UV-I 360 W/m 16,1 km/h (3 Bft)
30.03.2010 16:40 19,0 C 44 % 991,0 hPa 0,0 mm 4,8 km/h (1 Bft) S-SW 202 0 min 1 UV-I 223 W/m 19,3 km/h (3 Bft)
30.03.2010 16:50 18,5 C 45 % 991,0 hPa 0,0 mm 4,8 km/h (1 Bft) S-SW 202 0 min 1 UV-I 165 W/m 22,5 km/h (4 Bft)
30.03.2010 17:00 18,3 C 45 % 991,0 hPa 0,0 mm 6,4 km/h (2 Bft) SW 225 0 min 1 UV-I 186 W/m 22,5 km/h (4 Bft)
30.03.2010 17:10 18,2 C 47 % 991,0 hPa 0,0 mm 4,8 km/h (1 Bft) S-SW 202 0 min 1 UV-I 142 W/m 14,5 km/h (3 Bft)
30.03.2010 17:20 18,0 C 48 % 991,0 hPa 0,0 mm 1,6 km/h (1 Bft) S 180 0 min 1 UV-I 121 W/m 9,7 km/h (2 Bft)
30.03.2010 17:30 17,9 C 49 % 991,1 hPa 0,0 mm 0,0 km/h (0 Bft) S 180 0 min 1 UV-I 102 W/m 6,4 km/h (2 Bft)
30.03.2010 17:40 17,8 C 48 % 991,1 hPa 0,0 mm 1,6 km/h (1 Bft) S-SW 202 0 min 0 UV-I 40 W/m 9,7 km/h (2 Bft)
30.03.2010 17:50 17,6 C 47 % 991,0 hPa 0,0 mm 3,2 km/h (1 Bft) SW 225 0 min 0 UV-I 46 W/m 16,1 km/h (3 Bft)
30.03.2010 18:00 17,4 C 48 % 991,1 hPa 0,0 mm 1,6 km/h (1 Bft) SW 225 0 min 0 UV-I 39 W/m 9,7 km/h (2 Bft)
30.03.2010 18:10 17,2 C 50 % 991,2 hPa 0,0 mm 0,0 km/h (0 Bft) SW 225 0 min 0 UV-I 51 W/m 6,4 km/h (2 Bft)
30.03.2010 18:20 17,1 C 51 % 991,1 hPa 0,0 mm 0,0 km/h (0 Bft) SW 225 0 min 0 UV-I 58 W/m 1,6 km/h (1 Bft)
30.03.2010 18:30 17,0 C 51 % 991,1 hPa 0,0 mm 1,6 km/h (1 Bft) SW 225 0 min 0 UV-I 53 W/m 6,4 km/h (2 Bft)
30.03.2010 18:40 16,9 C 52 % 991,2 hPa 0,0 mm 1,6 km/h (1 Bft) SW 225 0 min 0 UV-I 26 W/m 6,4 km/h (2 Bft)
30.03.2010 18:50 16,6 C 53 % 991,3 hPa 0,0 mm 1,6 km/h (1 Bft) SW 225 0 min 0 UV-I 23 W/m 4,8 km/h (1 Bft)
30.03.2010 19:00 16,4 C 53 % 991,4 hPa 0,0 mm 3,2 km/h (1 Bft) SW 225 0 min 0 UV-I 21 W/m 14,5 km/h (3 Bft)
30.03.2010 19:10 16,4 C 50 % 991,5 hPa 0,0 mm 6,4 km/h (2 Bft) W-SW 247 0 min 0 UV-I 12 W/m 20,9 km/h (4 Bft)
30.03.2010 19:20 16,3 C 49 % 991,5 hPa 0,0 mm 4,8 km/h (1 Bft) SW 225 0 min 0 UV-I 9 W/m 17,7 km/h (3 Bft)
30.03.2010 19:30 16,2 C 51 % 991,6 hPa 0,0 mm 4,8 km/h (1 Bft) SW 225 0 min 0 UV-I 7 W/m 12,9 km/h (3 Bft)
30.03.2010 19:40 15,8 C 56 % 991,8 hPa 0,0 mm 4,8 km/h (1 Bft) W-SW 247 0 min 0 UV-I 0 W/m 11,3 km/h (2 Bft)
30.03.2010 19:50 15,5 C 56 % 991,9 hPa 0,0 mm 8,0 km/h (2 Bft) W-SW 247 0 min 0 UV-I 0 W/m 19,3 km/h (3 Bft)
30.03.2010 20:00 15,2 C 63 % 992,1 hPa 0,0 mm 9,7 km/h (2 Bft) W 270 0 min 0 UV-I 0 W/m 24,1 km/h (4 Bft)
30.03.2010 20:10 14,3 C 70 % 992,4 hPa 0,0 mm 4,8 km/h (1 Bft) W-SW 247 0 min 0 UV-I 0 W/m 16,1 km/h (3 Bft)
30.03.2010 20:20 13,4 C 72 % 992,5 hPa 0,0 mm 4,8 km/h (1 Bft) W 270 0 min 0 UV-I 0 W/m 12,9 km/h (3 Bft)
30.03.2010 20:30 13,1 C 72 % 992,5 hPa 0,0 mm 6,4 km/h (2 Bft) W 270 0 min 0 UV-I 0 W/m 19,3 km/h (3 Bft)
30.03.2010 20:40 12,9 C 72 % 992,5 hPa 0,0 mm 8,0 km/h (2 Bft) W-SW 247 0 min 0 UV-I 0 W/m 27,4 km/h (4 Bft)
30.03.2010 20:50 12,8 C 73 % 992,7 hPa 0,0 mm 8,0 km/h (2 Bft) W-SW 247 0 min 0 UV-I 0 W/m 22,5 km/h (4 Bft)
30.03.2010 21:00 12,5 C 75 % 993,2 hPa 0,3 mm 11,3 km/h (2 Bft) SW 225 0 min 0 UV-I 0 W/m 30,6 km/h (5 Bft)
30.03.2010 21:10 11,6 C 80 % 993,7 hPa 0,3 mm 4,8 km/h (1 Bft) W-SW 247 0 min 0 UV-I 0 W/m 17,7 km/h (3 Bft)
30.03.2010 21:20 10,9 C 82 % 993,8 hPa 0,3 mm 3,2 km/h (1 Bft) SW 225 0 min 0 UV-I 0 W/m 14,5 km/h (3 Bft)
30.03.2010 21:30 10,6 C 84 % 993,8 hPa 0,3 mm 1,6 km/h (1 Bft) SW 225 0 min 0 UV-I 0 W/m 6,4 km/h (2 Bft)
30.03.2010 21:40 10,3 C 86 % 993,6 hPa 0,5 mm 0,0 km/h (0 Bft) S-SW 202 0 min 0 UV-I 0 W/m 4,8 km/h (1 Bft)
30.03.2010 21:50 10,3 C 87 % 993,4 hPa 0,0 mm 0,0 km/h (0 Bft) S-SW 202 0 min 0 UV-I 0 W/m 1,6 km/h (1 Bft)
30.03.2010 22:00 10,2 C 88 % 993,6 hPa 0,0 mm 0,0 km/h (0 Bft) N 0 0 min 0 UV-I 0 W/m 0,0 km/h (0 Bft)
30.03.2010 22:10 10,1 C 89 % 993,6 hPa 0,0 mm 0,0 km/h (0 Bft) N 0 0 min 0 UV-I 0 W/m 0,0 km/h (0 Bft)
30.03.2010 22:20 10,1 C 90 % 993,5 hPa 0,0 mm 0,0 km/h (0 Bft) S-SW 202 0 min 0 UV-I 0 W/m 3,2 km/h (1 Bft)
30.03.2010 22:30 10,0 C 90 % 993,7 hPa 0,0 mm 0,0 km/h (0 Bft) S-SW 202 0 min 0 UV-I 0 W/m 1,6 km/h (1 Bft)
30.03.2010 22:40 10,1 C 90 % 993,8 hPa 0,3 mm 0,0 km/h (0 Bft) S-SW 202 0 min 0 UV-I 0 W/m 3,2 km/h (1 Bft)
30.03.2010 22:50 10,0 C 90 % 993,8 hPa 0,0 mm 0,0 km/h (0 Bft) S-SW 202 0 min 0 UV-I 0 W/m 3,2 km/h (1 Bft)
30.03.2010 23:00 9,9 C 89 % 993,7 hPa 0,0 mm 1,6 km/h (1 Bft) S 180 0 min 0 UV-I 0 W/m 4,8 km/h (1 Bft)
30.03.2010 23:10 10,0 C 87 % 993,5 hPa 0,0 mm 1,6 km/h (1 Bft) SW 225 0 min 0 UV-I 0 W/m 8,0 km/h (2 Bft)
30.03.2010 23:20 10,1 C 85 % 993,7 hPa 0,0 mm 1,6 km/h (1 Bft) W-SW 247 0 min 0 UV-I 0 W/m 8,0 km/h (2 Bft)
30.03.2010 23:30 10,0 C 84 % 993,7 hPa 0,0 mm 1,6 km/h (1 Bft) SW 225 0 min 0 UV-I 0 W/m 8,0 km/h (2 Bft)
30.03.2010 23:40 9,9 C 83 % 988,2 hPa 0,0 mm 1,6 km/h (1 Bft) S-SW 202 0 min 0 UV-I 0 W/m 6,4 km/h (2 Bft)
30.03.2010 23:50 9,8 C 83 % 994,1 hPa 0,0 mm 1,6 km/h (1 Bft) S-SW 202 0 min 0 UV-I 0 W/m 6,4 km/h (2 Bft)
_ Min-Zeit 01:50 16:40 23:40 - 17:30 - - - - - 22:00
Minimum _ 8,0 C 44 % 988,2 hPa - 0,0 km/h (0 Bft) - - - - - 0,0 km/h (0 Bft)
_ Max-Zeit 15:20 22:20 00:00 21:40 21:00 - - 11:10 12:40 12:40 21:00
Maximum _ 19,5 C 90 % 1001,4 hPa 0,5 mm 11,3 km/h
SW (2 Bft)
- - 10 min 4 UV-I 1004 W/m 30,6 km/h
W-SW (5 Bft)
Durchschnitt _ 12,6 C 73 % 994,5 hPa #1,8 mm 4,0 km/h (1 Bft) O-SO - #5:30 h 2 UV-I 337 W/m 12,9 km/h (3 Bft)